Airfield :
LOGIN :

Register | Disclaimer

   EN    FR    IT 

 










Legend :    VFR   Marginal VFR   IFR   Intensive IFR   Very Intensive IFR
Visi :
Ceiling :
>= 8 km
>= 3000ft
5 to 8 km
1000 to 3000 ft
1500m to 5 km
500 to 1000 ft
800 to 1500m
200 to 500 ft
< 800m
< 200 ft
Symbols :   Thunderstorms  Fog  Heavy snow  Heavy precipitations  Wind > 20 kt
SIGMETs :     Misc.  Thunderstorms  Icing  Turbulence  Mountain Waves  Volcanic Ashes







- Airport Elevation : 39 ft
- IATA code : ANR


EBAW - Anvers / Antwerpen Deurne

CURRENT METAR :
  • 221850Z 34010KT 9999 FEW027 BKN042 14/08 Q1029 NOSIG

EXPIRED METARs :
  • 221820Z 34012KT 310V010 9999 SCT027 BKN044 14/08 Q1029 NOSIG
  • 221750Z 33011KT 9999 SCT026 BKN048 14/08 Q1029 NOSIG
  • 221720Z 33012KT 9999 SCT028 BKN049 15/08 Q1029 NOSIG
  • 221650Z 34010KT 310V010 9999 BKN024 14/08 Q1029 NOSIG
  • 221620Z 34013KT 9999 FEW025 BKN040 15/08 Q1029 NOSIG

TAF TAF EBAW
Valid from the 22 at 18:00 until the 23 at 03:00 UTC


221710Z 2218/2303 33009KT 9999 SCT030 BKN045
No reported NOTAMs for that airfield.



MET'MAP, your aeronautical weather chart ! - Copyright ORBIFLY December 2007 - Disclaimer

ORBIFLY MET'MAP TEAM :

Programming & Development : Alexandra Zaïnal
Concept & Development : Baudouin d'Aumeries
Co-Development & Prog : Marc-Olivier Méhu
Technical & hardware support : Manuel Goepfert

Contact : metmap@orbifly.com




SOURCES & CREDITS :

   NOAA